sensor_id;sensor_type;location;lat;lon;timestamp;pressure;altitude;pressure_sealevel;temperature
69857;BMP280;57147;53.582;10.112;2023-02-03T00:00:44;101523.47;;;4.45
69857;BMP280;57147;53.582;10.112;2023-02-03T00:05:45;101516.50;;;4.39
69857;BMP280;57147;53.582;10.112;2023-02-03T00:10:48;101507.72;;;4.45
69857;BMP280;57147;53.582;10.112;2023-02-03T00:15:49;101451.00;;;4.49
69857;BMP280;57147;53.582;10.112;2023-02-03T00:20:50;101318.31;;;4.69
69857;BMP280;57147;53.582;10.112;2023-02-03T00:25:53;101317.41;;;4.75
69857;BMP280;57147;53.582;10.112;2023-02-03T00:30:53;101338.00;;;4.78
69857;BMP280;57147;53.582;10.112;2023-02-03T00:35:54;101333.13;;;4.86
69857;BMP280;57147;53.582;10.112;2023-02-03T00:40:57;101312.59;;;5.00
69857;BMP280;57147;53.582;10.112;2023-02-03T00:45:58;101298.31;;;5.24
69857;BMP280;57147;53.582;10.112;2023-02-03T00:50:58;101297.97;;;5.37
69857;BMP280;57147;53.582;10.112;2023-02-03T00:56:01;101273.97;;;5.51
69857;BMP280;57147;53.582;10.112;2023-02-03T01:01:02;101288.91;;;5.62
69857;BMP280;57147;53.582;10.112;2023-02-03T01:06:10;101426.13;;;5.77
69857;BMP280;57147;53.582;10.112;2023-02-03T01:11:17;101421.84;;;5.88
69857;BMP280;57147;53.582;10.112;2023-02-03T01:16:19;101435.41;;;5.96
69857;BMP280;57147;53.582;10.112;2023-02-03T01:21:25;101457.94;;;6.04
69857;BMP280;57147;53.582;10.112;2023-02-03T01:26:28;101472.66;;;6.17
69857;BMP280;57147;53.582;10.112;2023-02-03T01:31:30;101462.91;;;6.17
69857;BMP280;57147;53.582;10.112;2023-02-03T01:36:33;101454.75;;;6.19
69857;BMP280;57147;53.582;10.112;2023-02-03T01:41:38;101427.34;;;6.20
69857;BMP280;57147;53.582;10.112;2023-02-03T01:46:43;101410.78;;;6.24
69857;BMP280;57147;53.582;10.112;2023-02-03T01:51:46;101385.72;;;6.22
69857;BMP280;57147;53.582;10.112;2023-02-03T01:56:53;101369.38;;;6.25
69857;BMP280;57147;53.582;10.112;2023-02-03T02:01:55;101410.31;;;6.27
69857;BMP280;57147;53.582;10.112;2023-02-03T02:06:56;101418.69;;;6.24
69857;BMP280;57147;53.582;10.112;2023-02-03T02:12:00;101420.06;;;6.27
69857;BMP280;57147;53.582;10.112;2023-02-03T02:17:05;101424.53;;;6.26
69857;BMP280;57147;53.582;10.112;2023-02-03T02:22:13;101399.28;;;6.30
69857;BMP280;57147;53.582;10.112;2023-02-03T02:27:51;101387.84;;;6.25
69857;BMP280;57147;53.582;10.112;2023-02-03T02:33:15;101410.00;;;6.24
69857;BMP280;57147;53.582;10.112;2023-02-03T02:38:24;101379.66;;;6.21
69857;BMP280;57147;53.582;10.112;2023-02-03T02:43:32;101335.06;;;6.20
69857;BMP280;57147;53.582;10.112;2023-02-03T02:48:40;101375.97;;;6.22
69857;BMP280;57147;53.582;10.112;2023-02-03T02:53:46;101381.31;;;6.27
69857;BMP280;57147;53.582;10.112;2023-02-03T02:58:49;101411.09;;;6.28
69857;BMP280;57147;53.582;10.112;2023-02-03T03:03:53;101401.03;;;6.25
69857;BMP280;57147;53.582;10.112;2023-02-03T03:08:56;101377.38;;;6.30
69857;BMP280;57147;53.582;10.112;2023-02-03T03:13:58;101380.50;;;6.27
69857;BMP280;57147;53.582;10.112;2023-02-03T03:19:04;101351.56;;;6.32
69857;BMP280;57147;53.582;10.112;2023-02-03T03:24:09;101344.28;;;6.39
69857;BMP280;57147;53.582;10.112;2023-02-03T03:29:14;101308.47;;;6.43
69857;BMP280;57147;53.582;10.112;2023-02-03T03:34:18;101222.78;;;6.45
69857;BMP280;57147;53.582;10.112;2023-02-03T03:39:23;101192.88;;;6.40
69857;BMP280;57147;53.582;10.112;2023-02-03T03:44:30;101176.47;;;6.33
69857;BMP280;57147;53.582;10.112;2023-02-03T03:49:36;101187.13;;;6.43
69857;BMP280;57147;53.582;10.112;2023-02-03T03:54:41;101196.88;;;6.42
69857;BMP280;57147;53.582;10.112;2023-02-03T03:59:45;101194.56;;;6.24
69857;BMP280;57147;53.582;10.112;2023-02-03T04:04:49;101136.75;;;6.18
69857;BMP280;57147;53.582;10.112;2023-02-03T04:09:51;101163.47;;;6.26
69857;BMP280;57147;53.582;10.112;2023-02-03T04:14:51;101113.09;;;6.23
69857;BMP280;57147;53.582;10.112;2023-02-03T04:19:54;101096.22;;;6.24
69857;BMP280;57147;53.582;10.112;2023-02-03T04:24:55;101043.94;;;6.16
69857;BMP280;57147;53.582;10.112;2023-02-03T04:29:55;101063.38;;;6.09
69857;BMP280;57147;53.582;10.112;2023-02-03T04:34:59;101148.00;;;6.08
69857;BMP280;57147;53.582;10.112;2023-02-03T04:39:59;101166.19;;;6.09
69857;BMP280;57147;53.582;10.112;2023-02-03T04:45:00;101191.22;;;6.07
69857;BMP280;57147;53.582;10.112;2023-02-03T04:50:04;101167.28;;;6.13
69857;BMP280;57147;53.582;10.112;2023-02-03T04:55:05;101201.56;;;6.13
69857;BMP280;57147;53.582;10.112;2023-02-03T05:00:07;101193.66;;;6.13
69857;BMP280;57147;53.582;10.112;2023-02-03T05:05:11;101164.13;;;6.11
69857;BMP280;57147;53.582;10.112;2023-02-03T05:10:12;101107.41;;;6.09
69857;BMP280;57147;53.582;10.112;2023-02-03T05:15:13;101118.19;;;6.07
69857;BMP280;57147;53.582;10.112;2023-02-03T05:20:16;101063.94;;;6.11
69857;BMP280;57147;53.582;10.112;2023-02-03T05:25:17;101072.88;;;6.10
69857;BMP280;57147;53.582;10.112;2023-02-03T05:30:18;101081.31;;;6.12
69857;BMP280;57147;53.582;10.112;2023-02-03T05:35:21;101093.72;;;6.12
69857;BMP280;57147;53.582;10.112;2023-02-03T05:40:21;101104.00;;;6.13
69857;BMP280;57147;53.582;10.112;2023-02-03T05:45:22;101103.22;;;6.13
69857;BMP280;57147;53.582;10.112;2023-02-03T05:50:25;101123.56;;;6.18
69857;BMP280;57147;53.582;10.112;2023-02-03T05:55:26;101097.13;;;6.12
69857;BMP280;57147;53.582;10.112;2023-02-03T06:00:28;101117.19;;;6.13
69857;BMP280;57147;53.582;10.112;2023-02-03T06:05:32;101075.78;;;6.09
69857;BMP280;57147;53.582;10.112;2023-02-03T06:10:33;100973.22;;;6.12
69857;BMP280;57147;53.582;10.112;2023-02-03T06:15:34;101052.03;;;6.09
69857;BMP280;57147;53.582;10.112;2023-02-03T06:20:37;100963.75;;;6.11
69857;BMP280;57147;53.582;10.112;2023-02-03T06:25:38;100908.44;;;6.17
69857;BMP280;57147;53.582;10.112;2023-02-03T06:30:38;100747.31;;;6.08
69857;BMP280;57147;53.582;10.112;2023-02-03T06:35:41;100775.03;;;6.16
69857;BMP280;57147;53.582;10.112;2023-02-03T06:40:45;100772.38;;;6.16
69857;BMP280;57147;53.582;10.112;2023-02-03T06:45:46;100782.97;;;6.21
69857;BMP280;57147;53.582;10.112;2023-02-03T06:50:49;100796.16;;;6.26
69857;BMP280;57147;53.582;10.112;2023-02-03T06:55:50;100802.53;;;6.30
69857;BMP280;57147;53.582;10.112;2023-02-03T07:00:54;100815.19;;;6.38
69857;BMP280;57147;53.582;10.112;2023-02-03T07:05:57;100794.34;;;6.31
69857;BMP280;57147;53.582;10.112;2023-02-03T07:10:58;100828.19;;;6.49
69857;BMP280;57147;53.582;10.112;2023-02-03T07:15:58;100801.00;;;6.49
69857;BMP280;57147;53.582;10.112;2023-02-03T07:21:06;100803.69;;;6.54
69857;BMP280;57147;53.582;10.112;2023-02-03T07:26:09;100834.81;;;6.57
69857;BMP280;57147;53.582;10.112;2023-02-03T07:31:10;100809.75;;;6.55
69857;BMP280;57147;53.582;10.112;2023-02-03T07:36:13;100821.59;;;6.62
69857;BMP280;57147;53.582;10.112;2023-02-03T07:41:14;100805.25;;;6.60
69857;BMP280;57147;53.582;10.112;2023-02-03T07:46:14;100804.75;;;6.68
69857;BMP280;57147;53.582;10.112;2023-02-03T07:51:18;100822.44;;;6.73
69857;BMP280;57147;53.582;10.112;2023-02-03T07:56:18;100867.06;;;6.79
69857;BMP280;57147;53.582;10.112;2023-02-03T08:01:19;100920.91;;;6.78
69857;BMP280;57147;53.582;10.112;2023-02-03T08:06:22;100972.59;;;6.74
69857;BMP280;57147;53.582;10.112;2023-02-03T08:11:22;100945.13;;;6.70
69857;BMP280;57147;53.582;10.112;2023-02-03T08:16:24;100882.06;;;6.74
69857;BMP280;57147;53.582;10.112;2023-02-03T08:21:27;100934.97;;;6.47
69857;BMP280;57147;53.582;10.112;2023-02-03T08:26:28;101138.84;;;6.16
69857;BMP280;57147;53.582;10.112;2023-02-03T08:31:29;101255.47;;;6.23
69857;BMP280;57147;53.582;10.112;2023-02-03T08:36:32;101267.84;;;6.22
69857;BMP280;57147;53.582;10.112;2023-02-03T08:41:33;101123.91;;;6.26
69857;BMP280;57147;53.582;10.112;2023-02-03T08:46:33;101068.50;;;6.21
69857;BMP280;57147;53.582;10.112;2023-02-03T08:51:37;101119.66;;;6.20
69857;BMP280;57147;53.582;10.112;2023-02-03T08:56:37;101172.06;;;6.17
69857;BMP280;57147;53.582;10.112;2023-02-03T09:01:38;101195.88;;;6.22
69857;BMP280;57147;53.582;10.112;2023-02-03T09:06:41;101174.47;;;6.18
69857;BMP280;57147;53.582;10.112;2023-02-03T09:11:42;101164.69;;;6.40
69857;BMP280;57147;53.582;10.112;2023-02-03T09:16:43;101134.50;;;6.58
69857;BMP280;57147;53.582;10.112;2023-02-03T09:21:46;101114.78;;;6.71
69857;BMP280;57147;53.582;10.112;2023-02-03T09:26:47;101154.13;;;6.72
69857;BMP280;57147;53.582;10.112;2023-02-03T09:31:48;101119.31;;;6.75
69857;BMP280;57147;53.582;10.112;2023-02-03T09:36:51;101135.16;;;6.75
69857;BMP280;57147;53.582;10.112;2023-02-03T09:42:08;101153.13;;;6.78
69857;BMP280;57147;53.582;10.112;2023-02-03T09:47:13;101167.94;;;6.84
69857;BMP280;57147;53.582;10.112;2023-02-03T09:52:19;101166.56;;;6.77
69857;BMP280;57147;53.582;10.112;2023-02-03T09:57:21;101165.28;;;6.79
69857;BMP280;57147;53.582;10.112;2023-02-03T10:02:40;101186.97;;;6.86
69857;BMP280;57147;53.582;10.112;2023-02-03T10:07:56;101201.75;;;6.88
69857;BMP280;57147;53.582;10.112;2023-02-03T10:13:05;101199.13;;;6.88
69857;BMP280;57147;53.582;10.112;2023-02-03T10:18:09;101201.78;;;6.93
69857;BMP280;57147;53.582;10.112;2023-02-03T10:23:17;101213.94;;;6.94
69857;BMP280;57147;53.582;10.112;2023-02-03T10:28:21;101227.19;;;6.99
69857;BMP280;57147;53.582;10.112;2023-02-03T10:33:24;101229.28;;;6.97
69857;BMP280;57147;53.582;10.112;2023-02-03T10:38:39;101240.19;;;7.05
69857;BMP280;57147;53.582;10.112;2023-02-03T10:43:41;101262.31;;;6.99
69857;BMP280;57147;53.582;10.112;2023-02-03T10:48:42;101222.56;;;6.84
69857;BMP280;57147;53.582;10.112;2023-02-03T10:53:45;101227.91;;;6.89
69857;BMP280;57147;53.582;10.112;2023-02-03T10:58:47;101240.84;;;6.91
69857;BMP280;57147;53.582;10.112;2023-02-03T11:03:57;101234.03;;;6.95
69857;BMP280;57147;53.582;10.112;2023-02-03T11:09:01;101237.75;;;6.99
69857;BMP280;57147;53.582;10.112;2023-02-03T11:14:15;101249.41;;;7.03
69857;BMP280;57147;53.582;10.112;2023-02-03T11:19:17;101224.59;;;7.04
69857;BMP280;57147;53.582;10.112;2023-02-03T11:24:23;101277.25;;;7.15
69857;BMP280;57147;53.582;10.112;2023-02-03T11:29:26;101256.44;;;7.24
69857;BMP280;57147;53.582;10.112;2023-02-03T11:34:28;101263.31;;;7.25
69857;BMP280;57147;53.582;10.112;2023-02-03T11:39:32;101286.03;;;7.26
69857;BMP280;57147;53.582;10.112;2023-02-03T11:44:33;101247.44;;;7.20
69857;BMP280;57147;53.582;10.112;2023-02-03T11:55:24;101251.75;;;7.31
69857;BMP280;57147;53.582;10.112;2023-02-03T12:00:33;101242.41;;;7.18
69857;BMP280;57147;53.582;10.112;2023-02-03T12:05:45;101257.75;;;7.21
69857;BMP280;57147;53.582;10.112;2023-02-03T12:11:06;101254.66;;;7.30
69857;BMP280;57147;53.582;10.112;2023-02-03T12:16:20;101260.72;;;7.30
69857;BMP280;57147;53.582;10.112;2023-02-03T12:21:35;101270.59;;;7.45
69857;BMP280;57147;53.582;10.112;2023-02-03T12:26:48;101281.94;;;7.40
69857;BMP280;57147;53.582;10.112;2023-02-03T12:31:59;101304.59;;;7.31
69857;BMP280;57147;53.582;10.112;2023-02-03T12:37:04;101311.34;;;7.22
69857;BMP280;57147;53.582;10.112;2023-02-03T12:42:13;101304.41;;;7.11
69857;BMP280;57147;53.582;10.112;2023-02-03T12:47:21;101354.81;;;7.09
69857;BMP280;57147;53.582;10.112;2023-02-03T12:52:28;101330.19;;;7.04
69857;BMP280;57147;53.582;10.112;2023-02-03T12:57:38;101316.41;;;6.97
69857;BMP280;57147;53.582;10.112;2023-02-03T13:02:47;101297.94;;;6.97
69857;BMP280;57147;53.582;10.112;2023-02-03T13:07:54;101317.47;;;6.96
69857;BMP280;57147;53.582;10.112;2023-02-03T13:13:01;101333.28;;;6.96
69857;BMP280;57147;53.582;10.112;2023-02-03T13:18:09;101333.78;;;6.93
69857;BMP280;57147;53.582;10.112;2023-02-03T13:23:13;101339.56;;;6.90
69857;BMP280;57147;53.582;10.112;2023-02-03T13:28:26;101355.09;;;6.86
69857;BMP280;57147;53.582;10.112;2023-02-03T13:33:52;101345.84;;;6.83
69857;BMP280;57147;53.582;10.112;2023-02-03T13:39:22;101365.34;;;6.82
69857;BMP280;57147;53.582;10.112;2023-02-03T13:44:27;101367.94;;;6.77
69857;BMP280;57147;53.582;10.112;2023-02-03T13:49:30;101366.34;;;6.76
69857;BMP280;57147;53.582;10.112;2023-02-03T13:54:34;101430.19;;;6.73
69857;BMP280;57147;53.582;10.112;2023-02-03T13:59:43;101400.59;;;6.71
69857;BMP280;57147;53.582;10.112;2023-02-03T14:04:51;101381.56;;;6.69
69857;BMP280;57147;53.582;10.112;2023-02-03T14:10:14;101375.97;;;6.66
69857;BMP280;57147;53.582;10.112;2023-02-03T14:15:30;101390.41;;;6.58
69857;BMP280;57147;53.582;10.112;2023-02-03T14:20:57;101379.56;;;6.55
69857;BMP280;57147;53.582;10.112;2023-02-03T14:26:15;101395.16;;;6.56
69857;BMP280;57147;53.582;10.112;2023-02-03T14:31:21;101393.66;;;6.43
69857;BMP280;57147;53.582;10.112;2023-02-03T14:36:30;101413.56;;;6.51
69857;BMP280;57147;53.582;10.112;2023-02-03T14:41:45;101384.41;;;6.41
69857;BMP280;57147;53.582;10.112;2023-02-03T14:47:21;101414.78;;;6.43
69857;BMP280;57147;53.582;10.112;2023-02-03T14:52:38;101435.41;;;6.46
69857;BMP280;57147;53.582;10.112;2023-02-03T14:57:46;101410.28;;;6.44
69857;BMP280;57147;53.582;10.112;2023-02-03T15:08:42;101410.28;;;6.44
69857;BMP280;57147;53.582;10.112;2023-02-03T15:13:42;101462.97;;;6.39
69857;BMP280;57147;53.582;10.112;2023-02-03T15:18:43;101435.56;;;6.40
69857;BMP280;57147;53.582;10.112;2023-02-03T15:23:47;101439.22;;;6.39
69857;BMP280;57147;53.582;10.112;2023-02-03T15:28:55;101435.97;;;6.32
69857;BMP280;57147;53.582;10.112;2023-02-03T15:34:00;101481.09;;;6.35
69857;BMP280;57147;53.582;10.112;2023-02-03T15:39:11;101453.41;;;6.33
69857;BMP280;57147;53.582;10.112;2023-02-03T15:44:20;101487.69;;;6.33
69857;BMP280;57147;53.582;10.112;2023-02-03T15:49:26;101450.09;;;6.26
69857;BMP280;57147;53.582;10.112;2023-02-03T15:54:34;101497.09;;;6.29
69857;BMP280;57147;53.582;10.112;2023-02-03T15:59:37;101489.59;;;6.21
69857;BMP280;57147;53.582;10.112;2023-02-03T16:04:38;101472.81;;;6.27
69857;BMP280;57147;53.582;10.112;2023-02-03T16:09:41;101481.13;;;6.19
69857;BMP280;57147;53.582;10.112;2023-02-03T16:14:43;101524.97;;;6.25
69857;BMP280;57147;53.582;10.112;2023-02-03T16:19:44;101529.84;;;5.99
69857;BMP280;57147;53.582;10.112;2023-02-03T16:24:47;101606.75;;;5.96
69857;BMP280;57147;53.582;10.112;2023-02-03T16:29:48;101591.03;;;5.73
69857;BMP280;57147;53.582;10.112;2023-02-03T16:34:48;101607.91;;;5.60
69857;BMP280;57147;53.582;10.112;2023-02-03T16:39:51;101664.72;;;5.45
69857;BMP280;57147;53.582;10.112;2023-02-03T16:44:52;101622.47;;;5.28
69857;BMP280;57147;53.582;10.112;2023-02-03T16:49:56;101978.34;;;5.13
69857;BMP280;57147;53.582;10.112;2023-02-03T16:54:59;102019.38;;;5.02
69857;BMP280;57147;53.582;10.112;2023-02-03T17:00:00;101944.88;;;5.02
69857;BMP280;57147;53.582;10.112;2023-02-03T17:05:00;102020.25;;;4.96
69857;BMP280;57147;53.582;10.112;2023-02-03T17:10:04;101900.59;;;4.81
69857;BMP280;57147;53.582;10.112;2023-02-03T17:15:06;101893.72;;;4.80
69857;BMP280;57147;53.582;10.112;2023-02-03T17:20:08;101839.94;;;4.76
69857;BMP280;57147;53.582;10.112;2023-02-03T17:25:11;101844.44;;;4.69
69857;BMP280;57147;53.582;10.112;2023-02-03T17:30:13;101843.06;;;4.84
69857;BMP280;57147;53.582;10.112;2023-02-03T17:35:14;101858.56;;;4.74
69857;BMP280;57147;53.582;10.112;2023-02-03T17:40:17;101849.28;;;4.72
69857;BMP280;57147;53.582;10.112;2023-02-03T17:45:18;101708.13;;;4.65
69857;BMP280;57147;53.582;10.112;2023-02-03T17:50:21;101717.91;;;4.58
69857;BMP280;57147;53.582;10.112;2023-02-03T17:55:24;101709.91;;;4.53
69857;BMP280;57147;53.582;10.112;2023-02-03T18:00:28;101747.28;;;4.55
69857;BMP280;57147;53.582;10.112;2023-02-03T18:05:29;101715.59;;;4.50
69857;BMP280;57147;53.582;10.112;2023-02-03T18:10:32;101777.53;;;4.64
69857;BMP280;57147;53.582;10.112;2023-02-03T18:15:33;101787.03;;;4.65
69857;BMP280;57147;53.582;10.112;2023-02-03T18:20:34;101860.69;;;4.65
69857;BMP280;57147;53.582;10.112;2023-02-03T18:25:37;101835.53;;;4.70
69857;BMP280;57147;53.582;10.112;2023-02-03T18:30:38;101848.56;;;4.64
69857;BMP280;57147;53.582;10.112;2023-02-03T18:35:38;101844.09;;;4.65
69857;BMP280;57147;53.582;10.112;2023-02-03T18:40:42;101853.81;;;4.64
69857;BMP280;57147;53.582;10.112;2023-02-03T18:45:42;101839.94;;;4.76
69857;BMP280;57147;53.582;10.112;2023-02-03T18:50:43;101895.78;;;4.78
69857;BMP280;57147;53.582;10.112;2023-02-03T18:55:46;101907.59;;;4.69
69857;BMP280;57147;53.582;10.112;2023-02-03T19:00:47;101896.78;;;4.58
69857;BMP280;57147;53.582;10.112;2023-02-03T19:05:48;101864.91;;;4.48
69857;BMP280;57147;53.582;10.112;2023-02-03T19:10:52;101881.41;;;4.55
69857;BMP280;57147;53.582;10.112;2023-02-03T19:16:03;101919.50;;;4.53
69857;BMP280;57147;53.582;10.112;2023-02-03T19:21:05;101963.94;;;4.61
69857;BMP280;57147;53.582;10.112;2023-02-03T19:26:11;101962.97;;;4.55
69857;BMP280;57147;53.582;10.112;2023-02-03T19:31:13;101970.38;;;4.65
69857;BMP280;57147;53.582;10.112;2023-02-03T19:36:14;101989.44;;;4.60
69857;BMP280;57147;53.582;10.112;2023-02-03T19:41:17;102012.81;;;4.69
69857;BMP280;57147;53.582;10.112;2023-02-03T19:46:18;102047.63;;;4.71
69857;BMP280;57147;53.582;10.112;2023-02-03T19:51:18;102091.75;;;4.69
69857;BMP280;57147;53.582;10.112;2023-02-03T19:56:22;102094.28;;;4.57
69857;BMP280;57147;53.582;10.112;2023-02-03T20:01:23;102136.25;;;4.77
69857;BMP280;57147;53.582;10.112;2023-02-03T20:06:24;102212.38;;;4.72
69857;BMP280;57147;53.582;10.112;2023-02-03T20:11:27;102229.81;;;4.66
69857;BMP280;57147;53.582;10.112;2023-02-03T20:16:28;102235.91;;;4.67
69857;BMP280;57147;53.582;10.112;2023-02-03T20:21:28;102251.31;;;4.56
69857;BMP280;57147;53.582;10.112;2023-02-03T20:26:32;102258.59;;;4.54
69857;BMP280;57147;53.582;10.112;2023-02-03T20:31:32;102262.28;;;4.47
69857;BMP280;57147;53.582;10.112;2023-02-03T20:36:39;102214.53;;;4.43
69857;BMP280;57147;53.582;10.112;2023-02-03T20:41:42;102219.06;;;4.23
69857;BMP280;57147;53.582;10.112;2023-02-03T20:46:44;102142.22;;;4.21
69857;BMP280;57147;53.582;10.112;2023-02-03T20:51:45;102157.63;;;4.11
69857;BMP280;57147;53.582;10.112;2023-02-03T20:56:48;102180.34;;;3.99
69857;BMP280;57147;53.582;10.112;2023-02-03T21:01:49;102217.34;;;3.90
69857;BMP280;57147;53.582;10.112;2023-02-03T21:06:49;102235.38;;;3.80
69857;BMP280;57147;53.582;10.112;2023-02-03T21:11:55;102249.91;;;3.76
69857;BMP280;57147;53.582;10.112;2023-02-03T21:16:55;102277.81;;;3.64
69857;BMP280;57147;53.582;10.112;2023-02-03T21:21:57;102320.63;;;3.58
69857;BMP280;57147;53.582;10.112;2023-02-03T21:27:00;102390.09;;;3.36
69857;BMP280;57147;53.582;10.112;2023-02-03T21:32:02;102442.63;;;3.42
69857;BMP280;57147;53.582;10.112;2023-02-03T21:37:15;102386.00;;;3.27
69857;BMP280;57147;53.582;10.112;2023-02-03T21:42:30;102407.00;;;3.27
69857;BMP280;57147;53.582;10.112;2023-02-03T21:47:32;102551.13;;;3.08
69857;BMP280;57147;53.582;10.112;2023-02-03T21:52:33;102396.34;;;2.87
69857;BMP280;57147;53.582;10.112;2023-02-03T21:57:36;102392.69;;;2.81
69857;BMP280;57147;53.582;10.112;2023-02-03T22:02:53;102411.53;;;2.64
69857;BMP280;57147;53.582;10.112;2023-02-03T22:07:54;102427.19;;;2.50
69857;BMP280;57147;53.582;10.112;2023-02-03T22:12:57;102439.53;;;2.35
69857;BMP280;57147;53.582;10.112;2023-02-03T22:17:58;102447.78;;;2.32
69857;BMP280;57147;53.582;10.112;2023-02-03T22:22:59;102484.47;;;2.32
69857;BMP280;57147;53.582;10.112;2023-02-03T22:28:02;102505.81;;;2.23
69857;BMP280;57147;53.582;10.112;2023-02-03T22:33:03;102516.47;;;2.21
69857;BMP280;57147;53.582;10.112;2023-02-03T22:38:03;102554.03;;;2.28
69857;BMP280;57147;53.582;10.112;2023-02-03T22:43:07;102547.03;;;2.57
69857;BMP280;57147;53.582;10.112;2023-02-03T22:48:07;102520.56;;;2.73
69857;BMP280;57147;53.582;10.112;2023-02-03T22:53:08;102502.63;;;2.55
69857;BMP280;57147;53.582;10.112;2023-02-03T22:58:11;102517.19;;;2.58
69857;BMP280;57147;53.582;10.112;2023-02-03T23:03:12;102517.56;;;2.54
69857;BMP280;57147;53.582;10.112;2023-02-03T23:08:12;102548.00;;;2.70
69857;BMP280;57147;53.582;10.112;2023-02-03T23:13:18;102533.91;;;2.78
69857;BMP280;57147;53.582;10.112;2023-02-03T23:18:19;102565.97;;;2.95
69857;BMP280;57147;53.582;10.112;2023-02-03T23:23:20;102540.75;;;2.72
69857;BMP280;57147;53.582;10.112;2023-02-03T23:28:23;102559.28;;;2.71
69857;BMP280;57147;53.582;10.112;2023-02-03T23:33:24;102553.78;;;2.44
69857;BMP280;57147;53.582;10.112;2023-02-03T23:38:25;102598.50;;;2.58
69857;BMP280;57147;53.582;10.112;2023-02-03T23:43:28;102603.09;;;2.56
69857;BMP280;57147;53.582;10.112;2023-02-03T23:48:29;102627.59;;;2.63
69857;BMP280;57147;53.582;10.112;2023-02-03T23:53:29;102631.47;;;2.67
69857;BMP280;57147;53.582;10.112;2023-02-03T23:58:36;102658.22;;;2.77
